createdAt,value
2023-02-26T00:00:31.082Z,10.96
2023-02-26T00:01:31.069Z,10.96
2023-02-26T00:02:31.082Z,10.86
2023-02-26T00:03:31.149Z,10.96
2023-02-26T00:04:31.078Z,10.96
2023-02-26T00:05:31.066Z,10.76
2023-02-26T00:06:31.076Z,10.96
2023-02-26T00:07:31.067Z,10.96
2023-02-26T00:08:31.073Z,10.96
2023-02-26T00:09:31.065Z,10.96
2023-02-26T00:10:31.067Z,10.96
2023-02-26T00:11:31.064Z,10.96
2023-02-26T00:12:31.067Z,10.96
2023-02-26T00:13:31.056Z,10.96
2023-02-26T00:14:31.098Z,10.96
2023-02-26T00:15:31.060Z,10.86
2023-02-26T00:16:31.160Z,10.86
2023-02-26T00:17:31.055Z,10.96
2023-02-26T00:18:31.061Z,10.86
2023-02-26T00:19:31.055Z,10.96
2023-02-26T00:20:31.062Z,10.86
2023-02-26T00:21:31.055Z,10.86
2023-02-26T00:22:31.061Z,10.86
2023-02-26T00:23:31.053Z,10.86
2023-02-26T00:24:31.060Z,10.86
2023-02-26T00:25:31.052Z,10.86
2023-02-26T00:26:31.572Z,10.86
2023-02-26T00:27:31.051Z,10.86
2023-02-26T00:28:31.057Z,10.86
2023-02-26T00:29:31.051Z,10.96
2023-02-26T00:30:31.098Z,10.96
2023-02-26T00:31:31.044Z,10.96
2023-02-26T00:32:32.167Z,10.86
2023-02-26T00:33:31.046Z,10.86
2023-02-26T00:34:31.060Z,10.96
2023-02-26T00:35:31.044Z,11.05
2023-02-26T00:36:31.050Z,11.05
2023-02-26T00:37:31.049Z,11.05
2023-02-26T00:38:31.053Z,11.05
2023-02-26T00:39:31.048Z,10.96
2023-02-26T00:40:31.059Z,11.05
2023-02-26T00:41:31.152Z,11.05
2023-02-26T00:42:31.048Z,10.77
2023-02-26T00:43:31.049Z,10.86
2023-02-26T00:44:31.049Z,10.86
2023-02-26T00:45:31.042Z,10.76
2023-02-26T00:46:31.095Z,10.76
2023-02-26T00:47:31.039Z,10.77
2023-02-26T00:48:31.047Z,10.76
2023-02-26T00:49:31.040Z,10.86
2023-02-26T00:50:31.045Z,11.06
2023-02-26T00:51:31.037Z,10.66
2023-02-26T00:52:31.044Z,10.66
2023-02-26T00:53:31.037Z,10.86
2023-02-26T00:54:31.043Z,10.86
2023-02-26T00:55:31.043Z,10.86
2023-02-26T00:56:31.052Z,11.05
2023-02-26T00:57:31.039Z,10.76
2023-02-26T00:58:31.044Z,10.86
2023-02-26T00:59:31.034Z,10.76
2023-02-26T01:00:31.043Z,10.86
2023-02-26T01:01:31.087Z,10.76
2023-02-26T01:02:31.065Z,10.86
2023-02-26T01:03:31.070Z,10.86
2023-02-26T01:04:31.036Z,10.66
2023-02-26T01:05:31.033Z,10.86
2023-02-26T01:06:31.040Z,10.86
2023-02-26T01:07:31.031Z,10.86
2023-02-26T01:08:31.034Z,10.86
2023-02-26T01:09:31.028Z,10.86
2023-02-26T01:10:31.037Z,10.86
2023-02-26T01:11:31.025Z,10.76
2023-02-26T01:12:31.032Z,10.86
2023-02-26T01:13:31.024Z,10.76
2023-02-26T01:14:31.031Z,10.76
2023-02-26T01:15:31.164Z,10.86
2023-02-26T01:16:31.029Z,10.86
2023-02-26T01:17:31.021Z,10.86
2023-02-26T01:18:31.089Z,10.76
2023-02-26T01:19:31.018Z,10.77
2023-02-26T01:20:31.029Z,10.76
2023-02-26T01:21:31.019Z,10.77
2023-02-26T01:22:31.025Z,10.76
2023-02-26T01:23:31.017Z,10.86
2023-02-26T01:24:31.029Z,10.86
2023-02-26T01:25:31.015Z,10.66
2023-02-26T01:26:31.021Z,10.86
2023-02-26T01:27:31.016Z,10.86
2023-02-26T01:28:31.028Z,11.05
2023-02-26T01:29:31.015Z,10.86
2023-02-26T01:30:31.026Z,10.66
2023-02-26T01:31:31.143Z,10.86
2023-02-26T01:32:31.091Z,10.66
2023-02-26T01:33:31.014Z,10.86
2023-02-26T01:34:31.036Z,10.66
2023-02-26T01:35:31.013Z,11.15
2023-02-26T01:36:31.044Z,10.66
2023-02-26T01:37:31.011Z,11.05
2023-02-26T01:38:31.019Z,11.05
2023-02-26T01:39:31.009Z,10.67
2023-02-26T01:40:31.013Z,11.05
2023-02-26T01:41:31.010Z,10.76
2023-02-26T01:42:31.023Z,10.76
2023-02-26T01:43:31.003Z,11.15
2023-02-26T01:44:31.013Z,10.76
2023-02-26T01:45:31.004Z,11.05
2023-02-26T01:46:31.449Z,11.15
2023-02-26T01:47:31.002Z,10.76
2023-02-26T01:48:31.010Z,11.15
2023-02-26T01:49:31.003Z,11.16
2023-02-26T01:50:31.035Z,11.15
2023-02-26T01:51:31.004Z,11.15
2023-02-26T01:52:31.009Z,11.05
2023-02-26T01:53:31.003Z,11.25
2023-02-26T01:54:31.016Z,11.15
2023-02-26T01:55:31.001Z,11.25
2023-02-26T01:56:31.009Z,11.15
2023-02-26T01:57:31.008Z,11.15
2023-02-26T01:58:31.006Z,11.15
2023-02-26T01:59:31.015Z,11.15
2023-02-26T02:00:31.009Z,11.16
2023-02-26T02:01:31.000Z,11.15
2023-02-26T02:02:31.130Z,11.25
2023-02-26T02:03:31.283Z,11.15
2023-02-26T02:04:31.007Z,11.15
2023-02-26T02:05:31.001Z,11.15
2023-02-26T02:06:31.028Z,11.25
2023-02-26T02:07:30.997Z,11.16
2023-02-26T02:08:31.004Z,11.15
2023-02-26T02:09:30.999Z,11.25
2023-02-26T02:10:31.005Z,11.15
2023-02-26T02:11:30.991Z,11.25
2023-02-26T02:12:31.005Z,11.25
2023-02-26T02:13:30.990Z,11.15
2023-02-26T02:14:30.993Z,11.15
2023-02-26T02:15:30.986Z,11.25
2023-02-26T02:16:31.082Z,11.25
2023-02-26T02:17:30.985Z,11.25
2023-02-26T02:18:30.990Z,11.25
2023-02-26T02:19:30.982Z,11.25
2023-02-26T02:20:30.999Z,11.25
2023-02-26T02:21:30.981Z,11.25
2023-02-26T02:22:31.020Z,11.44
2023-02-26T02:23:30.980Z,11.35
2023-02-26T02:24:30.985Z,11.25
2023-02-26T02:25:30.978Z,11.25
2023-02-26T02:26:30.987Z,11.25
2023-02-26T02:27:30.978Z,11.35
2023-02-26T02:28:30.987Z,11.25
2023-02-26T02:29:30.990Z,11.44
2023-02-26T02:30:30.980Z,11.35
2023-02-26T02:31:31.136Z,11.44
2023-02-26T02:32:31.110Z,11.35
2023-02-26T02:33:30.973Z,11.25
2023-02-26T02:34:30.986Z,11.35
2023-02-26T02:35:30.984Z,11.44
2023-02-26T02:36:30.976Z,11.35
2023-02-26T02:37:30.972Z,11.35
2023-02-26T02:38:30.997Z,11.05
2023-02-26T02:39:30.985Z,11.25
2023-02-26T02:40:30.975Z,11.44
2023-02-26T02:41:30.972Z,11.15
2023-02-26T02:42:30.972Z,11.35
2023-02-26T02:43:30.967Z,11.54
2023-02-26T02:44:30.972Z,11.35
2023-02-26T02:45:31.038Z,11.25
2023-02-26T02:46:31.244Z,11.44
2023-02-26T02:47:30.974Z,11.44
2023-02-26T02:48:30.970Z,11.15
2023-02-26T02:49:30.961Z,11.25
2023-02-26T02:50:30.969Z,11.25
2023-02-26T02:51:30.968Z,11.35
2023-02-26T02:52:30.970Z,11.25
2023-02-26T02:53:30.961Z,11.35
2023-02-26T02:54:30.993Z,11.25
2023-02-26T02:55:30.957Z,11.35
2023-02-26T02:56:30.965Z,11.35
2023-02-26T02:57:30.958Z,11.25
2023-02-26T02:58:30.963Z,11.25
2023-02-26T02:59:30.958Z,11.25
2023-02-26T03:00:30.962Z,11.25
2023-02-26T03:01:30.956Z,11.25
2023-02-26T03:02:31.020Z,11.25
2023-02-26T03:03:30.960Z,11.25
2023-02-26T03:04:30.960Z,11.25
2023-02-26T03:05:30.952Z,11.15
2023-02-26T03:06:30.960Z,11.15
2023-02-26T03:07:30.950Z,11.25
2023-02-26T03:08:30.957Z,11.25
2023-02-26T03:09:30.953Z,11.15
2023-02-26T03:10:30.979Z,11.15
2023-02-26T03:11:30.950Z,11.25
2023-02-26T03:12:30.983Z,11.15
2023-02-26T03:13:30.949Z,11.15
2023-02-26T03:14:30.958Z,11.25
2023-02-26T03:15:30.949Z,11.25
2023-02-26T03:16:31.027Z,11.25
2023-02-26T03:17:30.947Z,11.25
2023-02-26T03:18:30.952Z,11.06
2023-02-26T03:19:30.951Z,11.25
2023-02-26T03:20:30.963Z,11.15
2023-02-26T03:21:30.952Z,11.25
2023-02-26T03:22:30.953Z,11.05
2023-02-26T03:23:30.945Z,11.44
2023-02-26T03:24:30.956Z,11.25
2023-02-26T03:25:30.962Z,11.25
2023-02-26T03:26:30.974Z,11.25
2023-02-26T03:27:30.943Z,11.35
2023-02-26T03:28:30.953Z,11.25
2023-02-26T03:29:30.955Z,11.25
2023-02-26T03:30:30.943Z,11.25
2023-02-26T03:31:30.980Z,11.16
2023-02-26T03:32:30.997Z,11.35
2023-02-26T03:33:30.967Z,11.35
2023-02-26T03:34:30.942Z,11.35
2023-02-26T03:35:30.947Z,11.25
2023-02-26T03:36:30.941Z,11.35
2023-02-26T03:37:30.946Z,11.25
2023-02-26T03:38:30.940Z,11.35
2023-02-26T03:39:30.948Z,11.35
2023-02-26T03:40:30.939Z,11.25
2023-02-26T03:41:30.946Z,11.35
2023-02-26T03:42:30.969Z,11.35
2023-02-26T03:43:30.944Z,11.35
2023-02-26T03:44:30.938Z,10.96
2023-02-26T03:45:30.945Z,11.35
2023-02-26T03:46:30.936Z,11.35
2023-02-26T03:47:30.945Z,11.35
2023-02-26T03:48:30.934Z,11.35
2023-02-26T03:49:30.942Z,11.25
2023-02-26T03:50:30.933Z,11.15
2023-02-26T03:51:30.940Z,10.96
2023-02-26T03:52:30.937Z,11.35
2023-02-26T03:53:30.937Z,11.25
2023-02-26T03:54:30.932Z,11.25
2023-02-26T03:55:30.937Z,11.25
2023-02-26T03:56:30.932Z,11.35
2023-02-26T03:57:30.937Z,11.15
2023-02-26T03:58:30.949Z,11.25
2023-02-26T03:59:30.934Z,11.25
2023-02-26T04:00:30.926Z,11.25
2023-02-26T04:01:30.935Z,11.15
2023-02-26T04:02:30.980Z,11.15
2023-02-26T04:03:30.944Z,11.25
2023-02-26T04:04:30.994Z,11.15
2023-02-26T04:05:30.930Z,11.25
2023-02-26T04:06:30.927Z,11.35
2023-02-26T04:07:30.928Z,11.25
2023-02-26T04:08:30.931Z,11.44
2023-02-26T04:09:30.926Z,11.35
2023-02-26T04:10:30.920Z,11.16
2023-02-26T04:11:30.927Z,11.35
2023-02-26T04:12:30.916Z,11.35
2023-02-26T04:13:30.923Z,11.35
2023-02-26T04:14:30.939Z,11.35
2023-02-26T04:15:30.922Z,11.35
2023-02-26T04:16:30.987Z,11.35
2023-02-26T04:17:30.921Z,11.25
2023-02-26T04:18:30.913Z,11.25
2023-02-26T04:19:30.924Z,11.35
2023-02-26T04:20:30.920Z,11.35
2023-02-26T04:21:30.925Z,11.35
2023-02-26T04:22:30.916Z,11.35
2023-02-26T04:23:30.923Z,11.35
2023-02-26T04:24:30.911Z,11.25
2023-02-26T04:25:30.917Z,11.25
2023-02-26T04:26:30.907Z,11.35
2023-02-26T04:27:30.914Z,11.35
2023-02-26T04:28:30.906Z,11.44
2023-02-26T04:29:30.912Z,11.35
2023-02-26T04:30:30.968Z,11.35
2023-02-26T04:31:30.934Z,11.35
2023-02-26T04:32:30.981Z,11.25
2023-02-26T04:33:30.908Z,11.35
2023-02-26T04:34:30.900Z,11.35
2023-02-26T04:35:30.909Z,11.44
2023-02-26T04:36:30.900Z,11.44
2023-02-26T04:37:30.907Z,11.25
2023-02-26T04:38:30.898Z,11.25
2023-02-26T04:39:30.904Z,11.44
2023-02-26T04:40:30.896Z,11.35
2023-02-26T04:41:30.903Z,11.35
2023-02-26T04:42:30.894Z,11.35
2023-02-26T04:43:30.902Z,11.35
2023-02-26T04:44:30.901Z,11.44
2023-02-26T04:45:30.901Z,11.35
2023-02-26T04:46:30.992Z,11.35
2023-02-26T04:47:30.907Z,11.35
2023-02-26T04:48:30.893Z,11.44
2023-02-26T04:49:30.898Z,11.44
2023-02-26T04:50:30.889Z,11.35
2023-02-26T04:51:30.897Z,11.35
2023-02-26T04:52:30.903Z,11.44
2023-02-26T04:53:30.894Z,11.44
2023-02-26T04:54:30.902Z,11.35
2023-02-26T04:55:30.891Z,11.35
2023-02-26T04:56:30.887Z,11.44
2023-02-26T04:57:30.891Z,11.35
2023-02-26T04:58:30.884Z,11.44
2023-02-26T04:59:30.896Z,11.35
2023-02-26T05:00:30.881Z,11.25
2023-02-26T05:01:30.941Z,11.25
2023-02-26T05:02:30.903Z,11.35
2023-02-26T05:03:30.891Z,11.44
2023-02-26T05:04:30.895Z,11.35
2023-02-26T05:05:30.890Z,11.44
2023-02-26T05:06:30.881Z,11.44
2023-02-26T05:07:30.889Z,11.44
2023-02-26T05:08:30.882Z,11.35
2023-02-26T05:09:30.892Z,11.25
2023-02-26T05:10:30.878Z,10.76
2023-02-26T05:11:30.884Z,10.86
2023-02-26T05:12:30.877Z,10.76
2023-02-26T05:13:30.893Z,11.06
2023-02-26T05:14:30.880Z,10.96
2023-02-26T05:15:30.883Z,10.86
2023-02-26T05:16:31.022Z,10.76
2023-02-26T05:17:30.883Z,10.76
2023-02-26T05:18:30.899Z,10.76
2023-02-26T05:19:30.886Z,10.57
2023-02-26T05:20:30.873Z,10.66
2023-02-26T05:21:30.881Z,10.86
2023-02-26T05:22:30.871Z,10.67
2023-02-26T05:23:30.884Z,10.48
2023-02-26T05:24:30.881Z,10.47
2023-02-26T05:25:30.879Z,10.28
2023-02-26T05:26:30.867Z,10.28
2023-02-26T05:27:30.877Z,10.28
2023-02-26T05:28:30.868Z,10.08
2023-02-26T05:29:30.874Z,9.99
2023-02-26T05:30:30.899Z,10.09
2023-02-26T05:31:30.961Z,10.18
2023-02-26T05:32:30.871Z,10.28
2023-02-26T05:33:30.877Z,10.18
2023-02-26T05:34:30.888Z,10.28
2023-02-26T05:35:30.871Z,10.18
2023-02-26T05:36:30.871Z,10.09
2023-02-26T05:37:30.870Z,9.89
2023-02-26T05:38:30.867Z,9.79
2023-02-26T05:39:30.868Z,9.89
2023-02-26T05:40:30.864Z,9.89
2023-02-26T05:41:30.870Z,9.70
2023-02-26T05:42:30.860Z,9.60
2023-02-26T05:43:30.865Z,9.41
2023-02-26T05:44:30.860Z,9.60
2023-02-26T05:45:30.872Z,9.60
2023-02-26T05:46:30.894Z,9.80
2023-02-26T05:47:30.861Z,9.70
2023-02-26T05:48:30.856Z,9.50
2023-02-26T05:49:30.859Z,9.60
2023-02-26T05:50:30.879Z,9.41
2023-02-26T05:51:30.857Z,9.31
2023-02-26T05:52:30.854Z,9.50
2023-02-26T05:53:30.860Z,9.31
2023-02-26T05:54:30.847Z,9.21
2023-02-26T05:55:30.854Z,9.11
2023-02-26T05:56:30.846Z,9.21
2023-02-26T05:57:30.860Z,9.11
2023-02-26T05:58:30.844Z,9.11
2023-02-26T05:59:30.851Z,8.92
2023-02-26T06:00:30.850Z,9.01
2023-02-26T06:01:30.988Z,9.11
2023-02-26T06:02:30.847Z,9.01
2023-02-26T06:03:30.857Z,9.01
2023-02-26T06:04:30.841Z,9.01
2023-02-26T06:05:30.848Z,8.92
2023-02-26T06:06:30.860Z,8.83
2023-02-26T06:07:30.848Z,8.83
2023-02-26T06:08:30.839Z,8.83
2023-02-26T06:09:30.845Z,8.92
2023-02-26T06:10:30.836Z,8.92
2023-02-26T06:11:33.482Z,8.92
2023-02-26T06:12:30.841Z,9.01
2023-02-26T06:13:30.841Z,8.92
2023-02-26T06:14:30.837Z,9.11
2023-02-26T06:15:30.869Z,8.92
2023-02-26T06:16:30.882Z,9.01
2023-02-26T06:17:30.840Z,8.92
2023-02-26T06:18:30.829Z,8.92
2023-02-26T06:19:30.837Z,9.11
2023-02-26T06:20:30.832Z,9.11
2023-02-26T06:21:30.835Z,9.01
2023-02-26T06:22:30.856Z,9.01
2023-02-26T06:23:30.840Z,9.11
2023-02-26T06:24:30.827Z,8.92
2023-02-26T06:25:30.842Z,9.11
2023-02-26T06:26:30.825Z,9.11
2023-02-26T06:27:30.832Z,9.21
2023-02-26T06:28:30.825Z,9.01
2023-02-26T06:29:30.832Z,9.01
2023-02-26T06:30:30.864Z,9.11
2023-02-26T06:31:30.855Z,9.11
2023-02-26T06:32:31.006Z,9.11
2023-02-26T06:33:30.838Z,9.11
2023-02-26T06:34:30.824Z,9.21
2023-02-26T06:35:30.838Z,9.11
2023-02-26T06:36:30.821Z,9.11
2023-02-26T06:37:30.829Z,9.01
2023-02-26T06:38:30.844Z,9.11
2023-02-26T06:39:30.827Z,9.11
2023-02-26T06:40:30.821Z,9.11
2023-02-26T06:41:30.828Z,9.01
2023-02-26T06:42:30.819Z,9.11
2023-02-26T06:43:30.824Z,9.01
2023-02-26T06:44:30.817Z,9.11
2023-02-26T06:45:30.825Z,9.01
2023-02-26T06:46:30.815Z,9.11
2023-02-26T06:47:30.826Z,9.01
2023-02-26T06:48:30.821Z,9.11
2023-02-26T06:49:30.824Z,9.11
2023-02-26T06:50:30.817Z,9.01
2023-02-26T06:51:30.825Z,9.21
2023-02-26T06:52:30.817Z,9.01
2023-02-26T06:53:30.826Z,9.01
2023-02-26T06:54:30.847Z,9.11
2023-02-26T06:55:30.832Z,9.11
2023-02-26T06:56:30.818Z,9.11
2023-02-26T06:57:30.821Z,9.01
2023-02-26T06:58:30.810Z,8.92
2023-02-26T06:59:30.819Z,8.92
2023-02-26T07:00:30.936Z,9.01
2023-02-26T07:01:30.868Z,8.92
2023-02-26T07:02:30.839Z,9.01
2023-02-26T07:03:30.817Z,9.01
2023-02-26T07:04:30.806Z,9.01
2023-02-26T07:05:30.812Z,8.83
2023-02-26T07:06:30.802Z,8.83
2023-02-26T07:07:30.810Z,8.83
2023-02-26T07:08:30.802Z,8.83
2023-02-26T07:09:30.809Z,8.83
2023-02-26T07:10:30.822Z,9.01
2023-02-26T07:11:30.807Z,9.01
2023-02-26T07:12:30.806Z,9.01
2023-02-26T07:13:30.803Z,8.92
2023-02-26T07:14:30.799Z,8.92
2023-02-26T07:15:30.827Z,9.01
2023-02-26T07:16:30.882Z,9.01
2023-02-26T07:17:30.802Z,8.92
2023-02-26T07:18:30.792Z,8.83
2023-02-26T07:19:30.799Z,8.92
2023-02-26T07:20:30.794Z,9.11
2023-02-26T07:21:30.798Z,9.01
2023-02-26T07:22:30.790Z,9.01
2023-02-26T07:23:30.799Z,8.92
2023-02-26T07:24:30.798Z,8.92
2023-02-26T07:25:30.800Z,9.11
2023-02-26T07:26:30.824Z,9.01
2023-02-26T07:27:30.798Z,9.01
2023-02-26T07:28:30.788Z,9.01
2023-02-26T07:29:30.795Z,9.01
2023-02-26T07:30:30.922Z,9.11
2023-02-26T07:31:30.866Z,8.92
2023-02-26T07:32:30.891Z,9.21
2023-02-26T07:33:30.793Z,9.01
2023-02-26T07:34:30.787Z,9.11
2023-02-26T07:35:30.789Z,9.01
2023-02-26T07:36:30.781Z,9.11
2023-02-26T07:37:30.786Z,9.11
2023-02-26T07:38:30.781Z,9.11
2023-02-26T07:39:30.785Z,9.01
2023-02-26T07:40:30.780Z,9.01
2023-02-26T07:41:30.782Z,8.83
2023-02-26T07:42:30.800Z,9.01
2023-02-26T07:43:30.788Z,9.11
2023-02-26T07:44:30.780Z,8.83
2023-02-26T07:45:30.771Z,8.92
2023-02-26T07:46:30.863Z,8.83
2023-02-26T07:47:30.796Z,8.92
2023-02-26T07:48:30.784Z,8.92
2023-02-26T07:49:30.769Z,8.92
2023-02-26T07:50:30.784Z,9.01
2023-02-26T07:51:32.509Z,8.92
2023-02-26T07:52:30.773Z,8.92
2023-02-26T07:53:30.763Z,9.01
2023-02-26T07:54:30.768Z,9.21
2023-02-26T07:55:30.763Z,8.83
2023-02-26T07:56:30.768Z,8.73
2023-02-26T07:57:30.759Z,8.73
2023-02-26T07:58:30.789Z,8.73
2023-02-26T07:59:30.761Z,8.73
2023-02-26T08:00:30.765Z,8.83
2023-02-26T08:01:30.776Z,8.73
2023-02-26T08:02:30.763Z,8.73
2023-02-26T08:03:30.757Z,8.83
2023-02-26T08:04:30.813Z,8.73
2023-02-26T08:05:30.756Z,8.83
2023-02-26T08:06:30.761Z,8.92
2023-02-26T08:07:30.755Z,8.83
2023-02-26T08:08:30.760Z,8.83
2023-02-26T08:09:30.752Z,8.73
2023-02-26T08:10:30.770Z,8.83
2023-02-26T08:11:30.751Z,8.73
2023-02-26T08:12:30.759Z,8.92
2023-02-26T08:13:30.752Z,8.83
2023-02-26T08:14:30.810Z,8.63
2023-02-26T08:15:30.773Z,8.44
2023-02-26T08:16:30.757Z,8.83
2023-02-26T08:17:30.747Z,8.83
2023-02-26T08:18:30.754Z,8.53
2023-02-26T08:19:30.746Z,8.73
2023-02-26T08:20:30.753Z,8.73
2023-02-26T08:21:30.747Z,8.53
2023-02-26T08:22:30.749Z,8.73
2023-02-26T08:23:30.749Z,8.63
2023-02-26T08:24:30.756Z,8.63
2023-02-26T08:25:30.741Z,8.83
2023-02-26T08:26:30.746Z,8.63
2023-02-26T08:27:30.743Z,8.53
2023-02-26T08:28:30.744Z,8.53
2023-02-26T08:29:30.738Z,8.83
2023-02-26T08:30:30.766Z,8.53
2023-02-26T08:31:30.846Z,8.73
2023-02-26T08:32:30.814Z,8.53
2023-02-26T08:33:30.736Z,8.53
2023-02-26T08:34:30.748Z,8.83
2023-02-26T08:35:30.733Z,8.73
2023-02-26T08:36:30.739Z,8.53
2023-02-26T08:37:30.731Z,8.83
2023-02-26T08:38:30.745Z,8.73
2023-02-26T08:39:30.730Z,8.34
2023-02-26T08:40:30.741Z,8.14
2023-02-26T08:41:30.738Z,8.04
2023-02-26T08:42:30.735Z,8.34
2023-02-26T08:43:30.728Z,8.34
2023-02-26T08:44:30.733Z,8.34
2023-02-26T08:45:30.729Z,8.14
2023-02-26T08:46:30.816Z,8.44
2023-02-26T08:47:30.732Z,8.34
2023-02-26T08:48:30.731Z,8.14
2023-02-26T08:49:30.724Z,8.24
2023-02-26T08:50:30.742Z,8.14
2023-02-26T08:51:30.724Z,8.14
2023-02-26T08:52:30.731Z,8.34
2023-02-26T08:53:30.724Z,8.24
2023-02-26T08:54:30.732Z,8.44
2023-02-26T08:55:30.722Z,8.24
2023-02-26T08:56:30.731Z,8.24
2023-02-26T08:57:30.719Z,8.34
2023-02-26T08:58:32.158Z,8.24
2023-02-26T08:59:30.721Z,8.24
2023-02-26T09:00:30.726Z,8.34
2023-02-26T09:01:30.745Z,8.24
2023-02-26T09:02:30.773Z,8.14
2023-02-26T09:03:30.719Z,8.14
2023-02-26T09:04:31.305Z,8.14
2023-02-26T09:05:30.715Z,8.24
2023-02-26T09:06:30.734Z,8.14
2023-02-26T09:07:30.711Z,8.44
2023-02-26T09:08:30.720Z,8.14
2023-02-26T09:09:30.711Z,8.44
2023-02-26T09:10:30.726Z,8.34
2023-02-26T09:11:30.748Z,8.24
2023-02-26T09:12:30.722Z,8.34
2023-02-26T09:13:30.738Z,8.34
2023-02-26T09:14:30.722Z,8.34
2023-02-26T09:15:30.710Z,8.14
2023-02-26T09:16:30.895Z,8.24
2023-02-26T09:17:30.708Z,7.86
2023-02-26T09:18:30.740Z,8.14
2023-02-26T09:19:30.706Z,8.04
2023-02-26T09:20:30.715Z,8.24
2023-02-26T09:21:30.716Z,8.04
2023-02-26T09:22:30.712Z,7.95
2023-02-26T09:23:30.704Z,7.86
2023-02-26T09:24:30.757Z,8.44
2023-02-26T09:25:30.702Z,8.34
2023-02-26T09:26:30.726Z,8.04
2023-02-26T09:27:30.702Z,8.34
2023-02-26T09:28:30.797Z,8.04
2023-02-26T09:29:30.704Z,7.95
2023-02-26T09:30:30.709Z,8.04
2023-02-26T09:31:30.806Z,8.14
2023-02-26T09:32:30.814Z,8.14
2023-02-26T09:33:30.697Z,8.14
2023-02-26T09:34:30.726Z,8.04
2023-02-26T09:35:30.695Z,8.04
2023-02-26T09:36:30.702Z,8.04
2023-02-26T09:37:30.695Z,8.24
2023-02-26T09:38:30.717Z,7.86
2023-02-26T09:39:30.710Z,8.24
2023-02-26T09:40:30.743Z,8.24
2023-02-26T09:41:30.700Z,8.04
2023-02-26T09:42:30.704Z,8.14
2023-02-26T09:43:30.693Z,7.95
2023-02-26T09:44:30.698Z,8.04
2023-02-26T09:45:30.726Z,8.04
2023-02-26T09:46:30.694Z,8.04
2023-02-26T09:47:30.687Z,8.24
2023-02-26T09:48:30.692Z,8.24
2023-02-26T09:49:30.686Z,7.95
2023-02-26T09:50:30.716Z,8.14
2023-02-26T09:51:30.683Z,7.95
2023-02-26T09:52:30.695Z,8.14
2023-02-26T09:53:30.691Z,8.14
2023-02-26T09:54:30.691Z,8.14
2023-02-26T09:55:30.686Z,8.04
2023-02-26T09:56:30.690Z,8.14
2023-02-26T09:57:30.686Z,8.04
2023-02-26T09:58:30.690Z,8.04
2023-02-26T09:59:30.686Z,8.04
2023-02-26T10:00:30.689Z,7.95
2023-02-26T10:01:30.762Z,7.86
2023-02-26T10:02:30.691Z,8.04
2023-02-26T10:03:30.679Z,8.14
2023-02-26T10:04:30.760Z,7.86
2023-02-26T10:05:30.680Z,8.14
2023-02-26T10:06:30.709Z,8.14
2023-02-26T10:07:30.682Z,8.04
2023-02-26T10:08:30.683Z,7.86
2023-02-26T10:09:30.676Z,8.04
2023-02-26T10:10:33.066Z,8.04
2023-02-26T10:11:30.675Z,8.14
2023-02-26T10:12:30.688Z,8.04
2023-02-26T10:13:30.682Z,8.04
2023-02-26T10:14:30.690Z,8.04
2023-02-26T10:15:30.671Z,8.04
2023-02-26T10:16:31.197Z,8.04
2023-02-26T10:17:30.672Z,7.95
2023-02-26T10:18:30.677Z,8.04
2023-02-26T10:19:30.669Z,8.04
2023-02-26T10:20:30.778Z,7.95
2023-02-26T10:21:30.675Z,7.95
2023-02-26T10:22:30.699Z,8.24
2023-02-26T10:23:30.667Z,8.24
2023-02-26T10:24:30.674Z,8.14
2023-02-26T10:25:30.671Z,7.86
2023-02-26T10:26:30.671Z,8.14
2023-02-26T10:27:30.663Z,7.86
2023-02-26T10:28:30.670Z,8.04
2023-02-26T10:29:30.661Z,8.04
2023-02-26T10:30:30.710Z,8.24
2023-02-26T10:31:30.762Z,8.14
2023-02-26T10:32:30.770Z,8.14
2023-02-26T10:33:30.667Z,7.95
2023-02-26T10:34:30.663Z,8.24
2023-02-26T10:35:30.656Z,7.95
2023-02-26T10:36:30.664Z,7.95
2023-02-26T10:37:30.655Z,8.04
2023-02-26T10:38:30.686Z,7.66
2023-02-26T10:39:30.651Z,7.66
2023-02-26T10:40:30.679Z,7.76
2023-02-26T10:41:30.650Z,7.76
2023-02-26T10:42:30.657Z,7.76
2023-02-26T10:43:30.650Z,7.86
2023-02-26T10:44:30.657Z,7.76
2023-02-26T10:45:30.648Z,7.86
2023-02-26T10:46:30.660Z,7.95
2023-02-26T10:47:30.649Z,7.76
2023-02-26T10:48:30.658Z,7.86
2023-02-26T10:49:30.644Z,7.76
2023-02-26T10:50:30.649Z,7.76
2023-02-26T10:51:30.712Z,7.95
2023-02-26T10:52:30.660Z,7.95
2023-02-26T10:53:30.646Z,8.04
2023-02-26T10:54:30.670Z,8.05
2023-02-26T10:55:30.647Z,7.95
2023-02-26T10:56:30.646Z,7.95
2023-02-26T10:57:30.648Z,7.95
2023-02-26T10:58:30.641Z,7.86
2023-02-26T10:59:30.635Z,7.95
2023-02-26T11:00:30.656Z,8.04
2023-02-26T11:01:30.837Z,7.95
2023-02-26T11:02:30.689Z,7.95
2023-02-26T11:03:30.635Z,8.04
2023-02-26T11:04:30.643Z,8.04
2023-02-26T11:05:30.643Z,7.95
2023-02-26T11:06:30.646Z,7.86
2023-02-26T11:07:32.314Z,7.86
2023-02-26T11:08:30.653Z,7.86
2023-02-26T11:09:30.634Z,7.95
2023-02-26T11:10:30.664Z,8.04
2023-02-26T11:11:30.640Z,7.95
2023-02-26T11:12:30.640Z,8.04
2023-02-26T11:13:30.632Z,7.95
2023-02-26T11:14:30.936Z,7.95
2023-02-26T11:15:30.631Z,7.95
2023-02-26T11:16:30.641Z,7.95
2023-02-26T11:17:30.631Z,8.14
2023-02-26T11:18:30.640Z,8.04
2023-02-26T11:19:30.629Z,8.04
2023-02-26T11:20:30.638Z,7.95
2023-02-26T11:21:30.698Z,7.76
2023-02-26T11:22:30.635Z,7.76
2023-02-26T11:23:30.640Z,7.76
2023-02-26T11:24:30.634Z,7.86
2023-02-26T11:25:30.627Z,7.76
2023-02-26T11:26:30.660Z,7.76
2023-02-26T11:27:30.623Z,7.76
2023-02-26T11:28:30.634Z,7.66
2023-02-26T11:29:30.622Z,7.76
2023-02-26T11:30:30.643Z,7.66
2023-02-26T11:31:31.429Z,7.86
2023-02-26T11:32:30.628Z,7.76
2023-02-26T11:33:30.628Z,7.86
2023-02-26T11:34:30.625Z,7.86
2023-02-26T11:35:30.617Z,7.95
2023-02-26T11:36:30.626Z,7.76
2023-02-26T11:37:30.645Z,7.86
2023-02-26T11:38:30.696Z,7.56
2023-02-26T11:39:30.619Z,7.56
2023-02-26T11:40:30.627Z,7.86
2023-02-26T11:41:30.615Z,7.66
2023-02-26T11:42:30.665Z,7.86
2023-02-26T11:43:30.612Z,7.66
2023-02-26T11:44:30.624Z,7.56
2023-02-26T11:45:30.715Z,7.56
2023-02-26T11:46:30.706Z,7.37
2023-02-26T11:47:30.613Z,7.37
2023-02-26T11:48:30.617Z,7.76
2023-02-26T11:49:30.612Z,7.76
2023-02-26T11:50:30.617Z,7.46
2023-02-26T11:51:30.607Z,7.46
2023-02-26T11:52:30.615Z,7.37
2023-02-26T11:53:30.617Z,7.46
2023-02-26T11:54:30.616Z,7.46
2023-02-26T11:55:30.602Z,7.47
2023-02-26T11:56:30.608Z,7.46
2023-02-26T11:57:30.603Z,7.56
2023-02-26T11:58:30.633Z,7.66
2023-02-26T11:59:30.600Z,7.76
2023-02-26T12:00:30.598Z,7.76
2023-02-26T12:01:30.607Z,7.56
2023-02-26T12:02:30.663Z,7.66
2023-02-26T12:03:30.642Z,7.66
2023-02-26T12:04:30.595Z,7.57
2023-02-26T12:05:30.602Z,7.46
2023-02-26T12:06:30.600Z,7.37
2023-02-26T12:07:30.599Z,7.37
2023-02-26T12:08:30.597Z,7.56
2023-02-26T12:09:30.599Z,7.56
2023-02-26T12:10:30.592Z,7.27
2023-02-26T12:11:30.918Z,7.17
2023-02-26T12:12:30.589Z,7.17
2023-02-26T12:13:30.596Z,7.27
2023-02-26T12:14:30.609Z,7.17
2023-02-26T12:15:30.594Z,7.37
2023-02-26T12:16:30.585Z,7.27
2023-02-26T12:17:30.593Z,7.46
2023-02-26T12:18:30.594Z,7.27
2023-02-26T12:19:30.593Z,7.46
2023-02-26T12:20:30.587Z,7.27
2023-02-26T12:21:30.592Z,7.27
2023-02-26T12:22:30.622Z,7.27
2023-02-26T12:23:30.589Z,7.46
2023-02-26T12:24:30.578Z,7.37
2023-02-26T12:25:30.593Z,7.46
2023-02-26T12:26:30.580Z,7.27
2023-02-26T12:27:30.585Z,7.17
2023-02-26T12:28:30.579Z,7.56
2023-02-26T12:29:30.586Z,7.27
2023-02-26T12:30:30.638Z,7.37
2023-02-26T12:31:31.079Z,7.46
2023-02-26T12:32:30.598Z,7.37
2023-02-26T12:33:30.584Z,7.37
2023-02-26T12:34:30.582Z,7.18
2023-02-26T12:35:30.586Z,7.27
2023-02-26T12:36:46.506Z,7.28
2023-02-26T12:37:30.586Z,7.46
2023-02-26T12:38:30.576Z,7.46
2023-02-26T12:39:30.608Z,7.27
2023-02-26T12:40:30.589Z,7.37
2023-02-26T12:41:30.581Z,7.27
2023-02-26T12:42:30.574Z,7.46
2023-02-26T12:43:30.584Z,7.37
2023-02-26T12:44:30.571Z,7.37
2023-02-26T12:45:30.578Z,7.37
2023-02-26T12:46:30.657Z,7.37
2023-02-26T12:47:30.575Z,7.17
2023-02-26T12:48:30.570Z,7.17
2023-02-26T12:49:30.576Z,7.27
2023-02-26T12:50:30.566Z,7.46
2023-02-26T12:51:30.585Z,7.46
2023-02-26T12:52:30.571Z,7.46
2023-02-26T12:53:30.576Z,7.27
2023-02-26T12:54:30.563Z,7.46
2023-02-26T12:55:30.570Z,7.46
2023-02-26T12:56:30.561Z,7.56
2023-02-26T12:57:30.572Z,7.46
2023-02-26T12:58:30.562Z,7.46
2023-02-26T12:59:30.582Z,7.37
2023-02-26T13:00:30.615Z,7.17
2023-02-26T13:01:32.842Z,7.46
2023-02-26T13:02:30.581Z,7.46
2023-02-26T13:03:30.633Z,7.46
2023-02-26T13:04:30.563Z,7.46
2023-02-26T13:05:30.568Z,7.37
2023-02-26T13:06:30.561Z,7.46
2023-02-26T13:07:30.565Z,7.46